sensor_id;sensor_type;location;lat;lon;timestamp;pressure;altitude;pressure_sealevel;temperature;humidity
51227;BME280;42714;48.260;10.980;2023-07-24T00:02:35;964.4;;;19.1;100.0
51227;BME280;42714;48.260;10.980;2023-07-24T00:07:36;964.4;;;19.0;100.0
51227;BME280;42714;48.260;10.980;2023-07-24T00:12:37;964.3;;;19.0;100.0
51227;BME280;42714;48.260;10.980;2023-07-24T00:17:38;964.3;;;19.0;100.0
51227;BME280;42714;48.260;10.980;2023-07-24T00:22:39;964.1;;;18.9;100.0
51227;BME280;42714;48.260;10.980;2023-07-24T00:27:40;964.1;;;18.8;100.0
51227;BME280;42714;48.260;10.980;2023-07-24T00:32:41;964.0;;;18.7;100.0
51227;BME280;42714;48.260;10.980;2023-07-24T00:37:42;964.0;;;18.7;100.0
51227;BME280;42714;48.260;10.980;2023-07-24T00:42:46;963.9;;;18.6;100.0
51227;BME280;42714;48.260;10.980;2023-07-24T00:47:44;963.8;;;18.5;100.0
51227;BME280;42714;48.260;10.980;2023-07-24T00:52:45;963.8;;;18.5;100.0
51227;BME280;42714;48.260;10.980;2023-07-24T00:57:46;963.9;;;18.6;100.0
51227;BME280;42714;48.260;10.980;2023-07-24T01:02:47;963.9;;;18.7;100.0
51227;BME280;42714;48.260;10.980;2023-07-24T01:07:48;963.8;;;18.7;100.0
51227;BME280;42714;48.260;10.980;2023-07-24T01:12:52;963.8;;;18.7;100.0
51227;BME280;42714;48.260;10.980;2023-07-24T01:17:52;963.9;;;18.7;100.0
51227;BME280;42714;48.260;10.980;2023-07-24T01:23:02;964.1;;;18.9;100.0
51227;BME280;42714;48.260;10.980;2023-07-24T01:27:52;964.3;;;19.0;100.0
51227;BME280;42714;48.260;10.980;2023-07-24T01:32:53;964.3;;;19.0;100.0
51227;BME280;42714;48.260;10.980;2023-07-24T01:37:54;963.6;;;19.0;100.0
51227;BME280;42714;48.260;10.980;2023-07-24T01:42:55;963.8;;;18.8;100.0
51227;BME280;42714;48.260;10.980;2023-07-24T01:47:56;963.9;;;18.9;100.0
51227;BME280;42714;48.260;10.980;2023-07-24T01:52:57;965.0;;;19.0;100.0
51227;BME280;42714;48.260;10.980;2023-07-24T01:57:58;965.1;;;18.7;100.0
51227;BME280;42714;48.260;10.980;2023-07-24T02:02:59;964.8;;;18.4;100.0
51227;BME280;42714;48.260;10.980;2023-07-24T02:08:00;964.3;;;18.2;100.0
51227;BME280;42714;48.260;10.980;2023-07-24T02:13:01;963.8;;;17.9;100.0
51227;BME280;42714;48.260;10.980;2023-07-24T02:18:02;963.5;;;17.8;100.0
51227;BME280;42714;48.260;10.980;2023-07-24T02:23:03;963.5;;;17.7;100.0
51227;BME280;42714;48.260;10.980;2023-07-24T02:28:04;963.6;;;17.8;100.0
51227;BME280;42714;48.260;10.980;2023-07-24T02:33:05;963.8;;;17.7;100.0
51227;BME280;42714;48.260;10.980;2023-07-24T02:38:06;965.1;;;17.7;100.0
51227;BME280;42714;48.260;10.980;2023-07-24T02:43:07;966.4;;;17.9;100.0
51227;BME280;42714;48.260;10.980;2023-07-24T02:48:08;966.7;;;17.9;100.0
51227;BME280;42714;48.260;10.980;2023-07-24T02:53:09;966.6;;;17.8;100.0
51227;BME280;42714;48.260;10.980;2023-07-24T02:58:11;966.2;;;18.0;100.0
51227;BME280;42714;48.260;10.980;2023-07-24T03:03:11;965.6;;;18.0;100.0
51227;BME280;42714;48.260;10.980;2023-07-24T03:08:12;964.9;;;18.0;100.0
51227;BME280;42714;48.260;10.980;2023-07-24T03:13:13;964.6;;;17.8;100.0
51227;BME280;42714;48.260;10.980;2023-07-24T03:18:14;964.6;;;17.7;100.0
51227;BME280;42714;48.260;10.980;2023-07-24T03:23:15;964.2;;;17.7;100.0
51227;BME280;42714;48.260;10.980;2023-07-24T03:28:16;964.2;;;17.7;100.0
51227;BME280;42714;48.260;10.980;2023-07-24T03:33:17;963.9;;;17.6;100.0
51227;BME280;42714;48.260;10.980;2023-07-24T03:38:18;963.7;;;17.6;100.0
51227;BME280;42714;48.260;10.980;2023-07-24T03:43:19;963.8;;;17.5;100.0
51227;BME280;42714;48.260;10.980;2023-07-24T03:48:20;963.7;;;17.6;100.0
51227;BME280;42714;48.260;10.980;2023-07-24T03:53:21;963.5;;;17.5;100.0
51227;BME280;42714;48.260;10.980;2023-07-24T03:58:22;963.5;;;17.4;100.0
51227;BME280;42714;48.260;10.980;2023-07-24T04:03:23;963.7;;;17.4;100.0
51227;BME280;42714;48.260;10.980;2023-07-24T04:08:24;963.8;;;17.4;100.0
51227;BME280;42714;48.260;10.980;2023-07-24T04:13:25;963.9;;;17.4;100.0
51227;BME280;42714;48.260;10.980;2023-07-24T04:18:26;963.8;;;17.4;100.0
51227;BME280;42714;48.260;10.980;2023-07-24T04:23:27;963.8;;;17.5;100.0
51227;BME280;42714;48.260;10.980;2023-07-24T04:28:28;963.7;;;17.4;100.0
51227;BME280;42714;48.260;10.980;2023-07-24T04:33:29;963.6;;;17.7;100.0
51227;BME280;42714;48.260;10.980;2023-07-24T04:38:30;963.9;;;17.9;100.0
51227;BME280;42714;48.260;10.980;2023-07-24T04:43:31;963.9;;;17.8;100.0
51227;BME280;42714;48.260;10.980;2023-07-24T04:48:32;963.6;;;17.6;100.0
51227;BME280;42714;48.260;10.980;2023-07-24T04:53:33;963.4;;;17.5;100.0
51227;BME280;42714;48.260;10.980;2023-07-24T04:58:34;963.6;;;17.6;100.0
51227;BME280;42714;48.260;10.980;2023-07-24T05:03:35;963.6;;;17.6;100.0
51227;BME280;42714;48.260;10.980;2023-07-24T05:08:36;963.5;;;17.6;100.0
51227;BME280;42714;48.260;10.980;2023-07-24T05:13:37;963.5;;;17.6;100.0
51227;BME280;42714;48.260;10.980;2023-07-24T05:18:38;963.5;;;17.7;100.0
51227;BME280;42714;48.260;10.980;2023-07-24T05:23:39;963.6;;;17.7;100.0
51227;BME280;42714;48.260;10.980;2023-07-24T05:28:40;963.5;;;17.9;100.0
51227;BME280;42714;48.260;10.980;2023-07-24T05:33:41;963.2;;;18.4;100.0
51227;BME280;42714;48.260;10.980;2023-07-24T05:38:42;963.1;;;18.9;100.0
51227;BME280;42714;48.260;10.980;2023-07-24T05:43:43;963.3;;;19.6;100.0
51227;BME280;42714;48.260;10.980;2023-07-24T05:48:44;963.3;;;20.0;100.0
51227;BME280;42714;48.260;10.980;2023-07-24T05:53:45;963.1;;;19.8;100.0
51227;BME280;42714;48.260;10.980;2023-07-24T05:58:46;963.0;;;19.5;100.0
51227;BME280;42714;48.260;10.980;2023-07-24T06:03:47;962.9;;;19.3;100.0
51227;BME280;42714;48.260;10.980;2023-07-24T06:08:48;962.8;;;19.2;100.0
51227;BME280;42714;48.260;10.980;2023-07-24T06:13:49;962.9;;;19.6;100.0
51227;BME280;42714;48.260;10.980;2023-07-24T06:18:50;962.8;;;20.6;100.0
51227;BME280;42714;48.260;10.980;2023-07-24T06:23:51;962.7;;;22.0;100.0
51227;BME280;42714;48.260;10.980;2023-07-24T06:28:52;962.8;;;22.6;100.0
51227;BME280;42714;48.260;10.980;2023-07-24T06:33:53;963.0;;;22.2;100.0
51227;BME280;42714;48.260;10.980;2023-07-24T06:38:54;963.3;;;22.0;100.0
51227;BME280;42714;48.260;10.980;2023-07-24T06:43:55;964.2;;;21.7;100.0
51227;BME280;42714;48.260;10.980;2023-07-24T06:48:56;964.7;;;21.5;100.0
51227;BME280;42714;48.260;10.980;2023-07-24T06:53:57;965.1;;;21.0;100.0
51227;BME280;42714;48.260;10.980;2023-07-24T06:58:58;965.2;;;20.6;100.0
51227;BME280;42714;48.260;10.980;2023-07-24T07:03:59;965.3;;;20.3;100.0
51227;BME280;42714;48.260;10.980;2023-07-24T07:09:00;965.4;;;19.9;100.0
51227;BME280;42714;48.260;10.980;2023-07-24T07:14:01;965.6;;;19.4;100.0
51227;BME280;42714;48.260;10.980;2023-07-24T07:19:02;965.6;;;19.0;100.0
51227;BME280;42714;48.260;10.980;2023-07-24T07:24:04;965.6;;;18.8;100.0
51227;BME280;42714;48.260;10.980;2023-07-24T07:29:04;965.6;;;18.7;100.0
51227;BME280;42714;48.260;10.980;2023-07-24T07:34:05;965.7;;;18.5;100.0
51227;BME280;42714;48.260;10.980;2023-07-24T07:39:06;965.5;;;18.4;100.0
51227;BME280;42714;48.260;10.980;2023-07-24T07:44:07;965.4;;;18.2;100.0
51227;BME280;42714;48.260;10.980;2023-07-24T07:49:08;965.4;;;18.1;100.0
51227;BME280;42714;48.260;10.980;2023-07-24T07:54:09;965.2;;;18.1;100.0
51227;BME280;42714;48.260;10.980;2023-07-24T07:59:10;964.8;;;18.1;100.0
51227;BME280;42714;48.260;10.980;2023-07-24T08:04:11;964.4;;;18.2;100.0
51227;BME280;42714;48.260;10.980;2023-07-24T08:09:12;964.4;;;18.1;100.0
51227;BME280;42714;48.260;10.980;2023-07-24T08:14:13;964.0;;;18.1;100.0
51227;BME280;42714;48.260;10.980;2023-07-24T08:19:14;964.1;;;18.1;100.0
51227;BME280;42714;48.260;10.980;2023-07-24T08:24:15;963.7;;;18.1;100.0
51227;BME280;42714;48.260;10.980;2023-07-24T08:29:16;963.3;;;18.5;100.0
51227;BME280;42714;48.260;10.980;2023-07-24T08:34:17;963.1;;;19.1;100.0
51227;BME280;42714;48.260;10.980;2023-07-24T08:39:18;963.1;;;19.8;100.0
51227;BME280;42714;48.260;10.980;2023-07-24T08:44:19;963.1;;;20.6;100.0
51227;BME280;42714;48.260;10.980;2023-07-24T08:49:20;963.1;;;20.8;100.0
51227;BME280;42714;48.260;10.980;2023-07-24T08:54:21;963.3;;;21.1;100.0
51227;BME280;42714;48.260;10.980;2023-07-24T08:59:22;963.6;;;20.9;100.0
51227;BME280;42714;48.260;10.980;2023-07-24T09:04:24;963.6;;;20.9;100.0
51227;BME280;42714;48.260;10.980;2023-07-24T09:09:28;963.6;;;21.0;100.0
51227;BME280;42714;48.260;10.980;2023-07-24T09:14:26;963.5;;;21.4;100.0
51227;BME280;42714;48.260;10.980;2023-07-24T09:19:26;963.4;;;21.4;100.0
51227;BME280;42714;48.260;10.980;2023-07-24T09:24:27;963.4;;;22.1;100.0
51227;BME280;42714;48.260;10.980;2023-07-24T09:29:30;963.2;;;23.0;100.0
51227;BME280;42714;48.260;10.980;2023-07-24T09:34:31;963.3;;;23.6;100.0
51227;BME280;42714;48.260;10.980;2023-07-24T09:39:30;963.2;;;24.3;100.0
51227;BME280;42714;48.260;10.980;2023-07-24T09:44:32;963.2;;;24.7;100.0
51227;BME280;42714;48.260;10.980;2023-07-24T09:49:32;963.1;;;26.0;100.0
51227;BME280;42714;48.260;10.980;2023-07-24T09:54:35;963.2;;;26.2;100.0
51227;BME280;42714;48.260;10.980;2023-07-24T09:59:34;963.3;;;26.0;100.0
51227;BME280;42714;48.260;10.980;2023-07-24T10:04:35;963.3;;;25.4;100.0
51227;BME280;42714;48.260;10.980;2023-07-24T10:09:36;963.2;;;24.7;100.0
51227;BME280;42714;48.260;10.980;2023-07-24T10:14:37;963.3;;;24.2;100.0
51227;BME280;42714;48.260;10.980;2023-07-24T10:19:39;963.2;;;24.0;100.0
51227;BME280;42714;48.260;10.980;2023-07-24T10:24:39;962.8;;;24.6;100.0
51227;BME280;42714;48.260;10.980;2023-07-24T10:29:40;962.8;;;25.5;100.0
51227;BME280;42714;48.260;10.980;2023-07-24T10:34:41;962.8;;;26.8;100.0
51227;BME280;42714;48.260;10.980;2023-07-24T10:39:42;962.8;;;26.9;100.0
51227;BME280;42714;48.260;10.980;2023-07-24T10:44:43;962.8;;;27.6;100.0
51227;BME280;42714;48.260;10.980;2023-07-24T10:54:48;962.6;;;29.6;69.0
51227;BME280;42714;48.260;10.980;2023-07-24T10:59:46;962.4;;;30.0;66.3
51227;BME280;42714;48.260;10.980;2023-07-24T11:04:47;962.3;;;31.7;55.3
51227;BME280;42714;48.260;10.980;2023-07-24T11:09:48;962.3;;;32.9;47.6
51227;BME280;42714;48.260;10.980;2023-07-24T11:14:50;962.3;;;33.8;46.9
51227;BME280;42714;48.260;10.980;2023-07-24T11:19:50;962.2;;;34.8;39.5
51227;BME280;42714;48.260;10.980;2023-07-24T11:24:51;962.1;;;34.1;40.2
51227;BME280;42714;48.260;10.980;2023-07-24T11:29:52;961.8;;;33.9;42.3
51227;BME280;42714;48.260;10.980;2023-07-24T11:34:53;962.0;;;33.6;42.7
51227;BME280;42714;48.260;10.980;2023-07-24T11:39:57;962.0;;;32.7;44.0
51227;BME280;42714;48.260;10.980;2023-07-24T11:44:55;962.4;;;31.6;53.8
51227;BME280;42714;48.260;10.980;2023-07-24T11:49:57;963.2;;;30.2;69.9
51227;BME280;42714;48.260;10.980;2023-07-24T11:54:57;963.9;;;28.7;88.5
51227;BME280;42714;48.260;10.980;2023-07-24T11:59:58;964.3;;;26.5;100.0
51227;BME280;42714;48.260;10.980;2023-07-24T12:04:59;964.5;;;24.2;100.0
51227;BME280;42714;48.260;10.980;2023-07-24T12:10:01;964.6;;;22.8;100.0
51227;BME280;42714;48.260;10.980;2023-07-24T12:15:01;964.4;;;22.1;100.0
51227;BME280;42714;48.260;10.980;2023-07-24T12:20:03;964.1;;;21.7;100.0
51227;BME280;42714;48.260;10.980;2023-07-24T12:25:04;964.3;;;21.5;100.0
51227;BME280;42714;48.260;10.980;2023-07-24T12:35:07;964.8;;;21.0;100.0
51227;BME280;42714;48.260;10.980;2023-07-24T12:40:08;964.5;;;21.1;100.0
51227;BME280;42714;48.260;10.980;2023-07-24T12:45:08;964.5;;;21.3;100.0
51227;BME280;42714;48.260;10.980;2023-07-24T12:50:09;964.1;;;21.1;100.0
51227;BME280;42714;48.260;10.980;2023-07-24T12:55:09;963.5;;;20.9;100.0
51227;BME280;42714;48.260;10.980;2023-07-24T13:00:12;963.2;;;20.9;100.0
51227;BME280;42714;48.260;10.980;2023-07-24T13:05:11;962.9;;;21.0;100.0
51227;BME280;42714;48.260;10.980;2023-07-24T13:10:12;962.8;;;21.3;100.0
51227;BME280;42714;48.260;10.980;2023-07-24T13:15:13;962.4;;;21.6;100.0
51227;BME280;42714;48.260;10.980;2023-07-24T13:20:14;962.3;;;22.0;100.0
51227;BME280;42714;48.260;10.980;2023-07-24T13:25:15;962.6;;;22.3;100.0
51227;BME280;42714;48.260;10.980;2023-07-24T13:30:16;962.6;;;22.0;100.0
51227;BME280;42714;48.260;10.980;2023-07-24T13:35:17;962.5;;;22.5;100.0
51227;BME280;42714;48.260;10.980;2023-07-24T13:40:18;962.5;;;24.0;100.0
51227;BME280;42714;48.260;10.980;2023-07-24T13:45:20;962.3;;;24.1;100.0
51227;BME280;42714;48.260;10.980;2023-07-24T13:50:20;962.2;;;23.6;100.0
51227;BME280;42714;48.260;10.980;2023-07-24T13:55:21;962.2;;;23.4;100.0
51227;BME280;42714;48.260;10.980;2023-07-24T14:00:22;962.0;;;24.0;100.0
51227;BME280;42714;48.260;10.980;2023-07-24T14:05:23;961.9;;;24.8;100.0
51227;BME280;42714;48.260;10.980;2023-07-24T14:10:24;962.0;;;25.5;100.0
51227;BME280;42714;48.260;10.980;2023-07-24T14:15:25;962.0;;;25.8;100.0
51227;BME280;42714;48.260;10.980;2023-07-24T14:20:26;962.0;;;26.0;100.0
51227;BME280;42714;48.260;10.980;2023-07-24T14:25:27;962.0;;;26.2;100.0
51227;BME280;42714;48.260;10.980;2023-07-24T14:30:29;962.0;;;26.8;100.0
51227;BME280;42714;48.260;10.980;2023-07-24T14:35:30;961.9;;;26.9;100.0
51227;BME280;42714;48.260;10.980;2023-07-24T14:40:31;961.9;;;27.1;100.0
51227;BME280;42714;48.260;10.980;2023-07-24T14:45:32;961.8;;;27.2;98.0
51227;BME280;42714;48.260;10.980;2023-07-24T14:50:33;961.8;;;27.3;94.8
51227;BME280;42714;48.260;10.980;2023-07-24T14:55:34;961.5;;;26.6;98.6
51227;BME280;42714;48.260;10.980;2023-07-24T15:00:35;961.5;;;27.4;90.9
51227;BME280;42714;48.260;10.980;2023-07-24T15:05:36;961.6;;;27.4;100.0
51227;BME280;42714;48.260;10.980;2023-07-24T15:10:37;961.8;;;25.9;100.0
51227;BME280;42714;48.260;10.980;2023-07-24T15:15:38;961.8;;;25.4;100.0
51227;BME280;42714;48.260;10.980;2023-07-24T15:20:39;961.8;;;25.3;100.0
51227;BME280;42714;48.260;10.980;2023-07-24T15:25:40;961.7;;;25.4;100.0
51227;BME280;42714;48.260;10.980;2023-07-24T15:30:41;961.7;;;25.3;100.0
51227;BME280;42714;48.260;10.980;2023-07-24T15:35:42;961.9;;;25.2;100.0
51227;BME280;42714;48.260;10.980;2023-07-24T15:40:43;962.1;;;24.9;100.0
51227;BME280;42714;48.260;10.980;2023-07-24T15:45:44;962.1;;;24.6;100.0
51227;BME280;42714;48.260;10.980;2023-07-24T15:50:45;961.9;;;24.1;100.0
51227;BME280;42714;48.260;10.980;2023-07-24T15:55:46;961.9;;;23.3;100.0
51227;BME280;42714;48.260;10.980;2023-07-24T16:00:47;961.9;;;22.5;100.0
51227;BME280;42714;48.260;10.980;2023-07-24T16:05:48;962.3;;;21.7;100.0
51227;BME280;42714;48.260;10.980;2023-07-24T16:10:49;962.5;;;20.9;100.0
51227;BME280;42714;48.260;10.980;2023-07-24T16:15:50;962.3;;;20.2;100.0
51227;BME280;42714;48.260;10.980;2023-07-24T16:20:51;961.6;;;19.7;100.0
51227;BME280;42714;48.260;10.980;2023-07-24T16:25:52;961.7;;;19.4;100.0
51227;BME280;42714;48.260;10.980;2023-07-24T16:30:53;961.7;;;19.3;100.0
51227;BME280;42714;48.260;10.980;2023-07-24T16:35:54;961.6;;;19.1;100.0
51227;BME280;42714;48.260;10.980;2023-07-24T16:40:55;961.5;;;19.0;100.0
51227;BME280;42714;48.260;10.980;2023-07-24T16:45:56;961.3;;;18.9;100.0
51227;BME280;42714;48.260;10.980;2023-07-24T16:50:57;961.2;;;19.0;100.0
51227;BME280;42714;48.260;10.980;2023-07-24T16:55:58;961.2;;;19.1;100.0
51227;BME280;42714;48.260;10.980;2023-07-24T17:00:59;961.3;;;19.5;100.0
51227;BME280;42714;48.260;10.980;2023-07-24T17:06:00;961.4;;;19.6;100.0
51227;BME280;42714;48.260;10.980;2023-07-24T17:11:01;961.7;;;19.7;100.0
51227;BME280;42714;48.260;10.980;2023-07-24T17:16:02;961.8;;;19.9;100.0
51227;BME280;42714;48.260;10.980;2023-07-24T17:21:03;961.7;;;20.1;100.0
51227;BME280;42714;48.260;10.980;2023-07-24T17:26:04;961.7;;;20.2;100.0
51227;BME280;42714;48.260;10.980;2023-07-24T17:31:05;961.5;;;20.2;100.0
51227;BME280;42714;48.260;10.980;2023-07-24T17:36:06;961.7;;;20.0;100.0
51227;BME280;42714;48.260;10.980;2023-07-24T17:41:07;961.6;;;19.8;100.0
51227;BME280;42714;48.260;10.980;2023-07-24T17:46:08;961.7;;;19.8;100.0
51227;BME280;42714;48.260;10.980;2023-07-24T17:51:09;961.5;;;19.8;100.0
51227;BME280;42714;48.260;10.980;2023-07-24T17:56:10;961.3;;;19.8;100.0
51227;BME280;42714;48.260;10.980;2023-07-24T18:01:11;961.2;;;19.7;100.0
51227;BME280;42714;48.260;10.980;2023-07-24T18:06:12;961.4;;;19.7;100.0
51227;BME280;42714;48.260;10.980;2023-07-24T18:11:13;961.2;;;19.9;100.0
51227;BME280;42714;48.260;10.980;2023-07-24T18:16:14;961.4;;;19.8;100.0
51227;BME280;42714;48.260;10.980;2023-07-24T18:21:15;961.4;;;19.8;100.0
51227;BME280;42714;48.260;10.980;2023-07-24T18:26:16;961.4;;;19.7;100.0
51227;BME280;42714;48.260;10.980;2023-07-24T18:31:17;961.2;;;19.6;100.0
51227;BME280;42714;48.260;10.980;2023-07-24T18:36:18;961.4;;;19.6;100.0
51227;BME280;42714;48.260;10.980;2023-07-24T18:41:19;961.5;;;19.6;100.0
51227;BME280;42714;48.260;10.980;2023-07-24T18:46:20;961.6;;;19.5;100.0
51227;BME280;42714;48.260;10.980;2023-07-24T18:51:21;962.0;;;19.6;100.0
51227;BME280;42714;48.260;10.980;2023-07-24T18:56:22;962.2;;;19.4;100.0
51227;BME280;42714;48.260;10.980;2023-07-24T19:01:23;962.1;;;19.2;100.0
51227;BME280;42714;48.260;10.980;2023-07-24T19:06:24;961.9;;;18.7;100.0
51227;BME280;42714;48.260;10.980;2023-07-24T19:11:25;962.0;;;18.3;100.0
51227;BME280;42714;48.260;10.980;2023-07-24T19:16:26;962.0;;;18.0;100.0
51227;BME280;42714;48.260;10.980;2023-07-24T19:21:27;962.2;;;17.9;100.0
51227;BME280;42714;48.260;10.980;2023-07-24T19:26:28;962.5;;;17.8;100.0
51227;BME280;42714;48.260;10.980;2023-07-24T19:31:29;962.6;;;17.9;100.0
51227;BME280;42714;48.260;10.980;2023-07-24T19:36:30;962.6;;;17.9;100.0
51227;BME280;42714;48.260;10.980;2023-07-24T19:41:31;962.6;;;18.0;100.0
51227;BME280;42714;48.260;10.980;2023-07-24T19:46:32;962.6;;;18.0;100.0
51227;BME280;42714;48.260;10.980;2023-07-24T19:51:33;962.5;;;18.0;100.0
51227;BME280;42714;48.260;10.980;2023-07-24T19:56:34;962.4;;;18.0;100.0
51227;BME280;42714;48.260;10.980;2023-07-24T20:01:35;962.6;;;18.1;100.0
51227;BME280;42714;48.260;10.980;2023-07-24T20:06:36;962.6;;;18.1;100.0
51227;BME280;42714;48.260;10.980;2023-07-24T20:11:37;962.6;;;18.1;100.0
51227;BME280;42714;48.260;10.980;2023-07-24T20:16:38;962.7;;;18.1;100.0
51227;BME280;42714;48.260;10.980;2023-07-24T20:21:39;962.7;;;18.1;100.0
51227;BME280;42714;48.260;10.980;2023-07-24T20:26:40;962.8;;;18.0;100.0
51227;BME280;42714;48.260;10.980;2023-07-24T20:31:41;962.9;;;18.1;100.0
51227;BME280;42714;48.260;10.980;2023-07-24T20:36:42;963.0;;;18.2;100.0
51227;BME280;42714;48.260;10.980;2023-07-24T20:41:43;962.9;;;18.2;100.0
51227;BME280;42714;48.260;10.980;2023-07-24T20:46:44;962.8;;;18.2;100.0
51227;BME280;42714;48.260;10.980;2023-07-24T20:51:45;963.0;;;18.2;100.0
51227;BME280;42714;48.260;10.980;2023-07-24T20:56:46;963.0;;;18.1;100.0
51227;BME280;42714;48.260;10.980;2023-07-24T21:01:47;963.0;;;18.1;100.0
51227;BME280;42714;48.260;10.980;2023-07-24T21:06:48;962.8;;;18.1;100.0
51227;BME280;42714;48.260;10.980;2023-07-24T21:11:49;962.8;;;18.0;100.0
51227;BME280;42714;48.260;10.980;2023-07-24T21:16:50;962.9;;;18.0;100.0
51227;BME280;42714;48.260;10.980;2023-07-24T21:21:51;962.9;;;17.9;100.0
51227;BME280;42714;48.260;10.980;2023-07-24T21:26:52;963.0;;;17.9;100.0
51227;BME280;42714;48.260;10.980;2023-07-24T21:31:53;963.2;;;17.9;100.0
51227;BME280;42714;48.260;10.980;2023-07-24T21:36:54;963.2;;;17.9;100.0
51227;BME280;42714;48.260;10.980;2023-07-24T21:41:55;963.2;;;17.9;100.0
51227;BME280;42714;48.260;10.980;2023-07-24T21:46:56;963.3;;;17.8;100.0
51227;BME280;42714;48.260;10.980;2023-07-24T21:51:57;963.4;;;17.9;100.0
51227;BME280;42714;48.260;10.980;2023-07-24T21:56:58;963.4;;;17.9;100.0
51227;BME280;42714;48.260;10.980;2023-07-24T22:01:59;963.5;;;17.8;100.0
51227;BME280;42714;48.260;10.980;2023-07-24T22:07:00;963.4;;;17.9;100.0
51227;BME280;42714;48.260;10.980;2023-07-24T22:12:01;963.4;;;17.9;100.0
51227;BME280;42714;48.260;10.980;2023-07-24T22:17:02;963.3;;;17.8;100.0
51227;BME280;42714;48.260;10.980;2023-07-24T22:22:03;963.1;;;17.8;100.0
51227;BME280;42714;48.260;10.980;2023-07-24T22:27:04;963.2;;;17.7;100.0
51227;BME280;42714;48.260;10.980;2023-07-24T22:37:06;963.2;;;17.6;100.0
51227;BME280;42714;48.260;10.980;2023-07-24T22:42:07;963.1;;;17.6;100.0
51227;BME280;42714;48.260;10.980;2023-07-24T22:47:08;963.0;;;17.5;100.0
51227;BME280;42714;48.260;10.980;2023-07-24T22:52:09;963.0;;;17.4;100.0
51227;BME280;42714;48.260;10.980;2023-07-24T22:57:10;962.9;;;17.4;100.0
51227;BME280;42714;48.260;10.980;2023-07-24T23:02:11;962.8;;;17.5;100.0
51227;BME280;42714;48.260;10.980;2023-07-24T23:07:12;962.8;;;17.4;100.0
51227;BME280;42714;48.260;10.980;2023-07-24T23:12:13;962.8;;;17.4;100.0
51227;BME280;42714;48.260;10.980;2023-07-24T23:17:14;962.6;;;17.3;100.0
51227;BME280;42714;48.260;10.980;2023-07-24T23:22:15;962.7;;;17.3;100.0
51227;BME280;42714;48.260;10.980;2023-07-24T23:27:16;962.7;;;17.2;100.0
51227;BME280;42714;48.260;10.980;2023-07-24T23:32:17;962.7;;;17.2;100.0
51227;BME280;42714;48.260;10.980;2023-07-24T23:37:18;962.6;;;17.2;100.0
51227;BME280;42714;48.260;10.980;2023-07-24T23:42:19;962.4;;;17.1;100.0
51227;BME280;42714;48.260;10.980;2023-07-24T23:47:20;962.4;;;17.1;100.0
51227;BME280;42714;48.260;10.980;2023-07-24T23:52:21;962.3;;;17.1;100.0
51227;BME280;42714;48.260;10.980;2023-07-24T23:57:22;962.3;;;17.1;100.0
